Time;durP1;ratioP1;P1;durP2;ratioP2;P2;SDS_P1;SDS_P2;PMS_P1;PMS_P2;Temp;Humidity;BMP_temperature;BMP_pressure;BME280_temperature;BME280_humidity;BME280_pressure;Samples;Min_cycle;Max_cycle;Signal;HPM_P1;HPM_P2
2021/09/10 00:01:47;;;;;;;1.83;1.73;;;16.30;99.90;;;;;;6118960;23;20432;-83
2021/09/10 00:04:31;;;;;;;1.98;1.77;;;16.30;99.90;;;;;;6098885;23;20380;-89
2021/09/10 00:07:15;;;;;;;1.50;1.40;;;16.30;99.90;;;;;;6151619;23;20599;-85
2021/09/10 00:10:00;;;;;;;1.95;1.75;;;16.30;99.90;;;;;;6127584;23;20376;-91
2021/09/10 00:12:44;;;;;;;1.63;1.53;;;16.30;99.90;;;;;;6145592;23;20376;-91
2021/09/10 00:15:28;;;;;;;1.67;1.55;;;16.40;99.90;;;;;;6121710;23;20823;-83
2021/09/10 00:18:12;;;;;;;1.30;1.30;;;16.30;99.90;;;;;;6140989;23;20471;-84
2021/09/10 00:20:56;;;;;;;1.50;1.40;;;16.30;99.90;;;;;;6098924;23;20399;-82
2021/09/10 00:23:40;;;;;;;1.80;1.50;;;16.30;99.90;;;;;;6140601;23;20451;-81
2021/09/10 00:26:25;;;;;;;1.50;1.42;;;16.30;99.90;;;;;;6117660;23;20372;-83
2021/09/10 00:29:09;;;;;;;1.52;1.42;;;16.30;99.90;;;;;;6118871;23;20392;-84
2021/09/10 00:31:54;;;;;;;1.40;1.30;;;16.20;99.90;;;;;;6119145;23;20411;-85
2021/09/10 00:34:38;;;;;;;1.35;1.33;;;16.20;99.90;;;;;;6097690;23;20392;-81
2021/09/10 00:37:22;;;;;;;3.53;1.52;;;16.20;99.90;;;;;;6159221;23;20389;-86
2021/09/10 00:40:08;;;;;;;1.20;1.20;;;16.20;99.90;;;;;;6138502;23;20479;-81
2021/09/10 00:42:52;;;;;;;1.60;1.50;;;16.20;99.90;;;;;;6099267;23;20368;-84
2021/09/10 00:45:42;;;;;;;1.38;1.27;;;16.20;99.90;;;;;;6150377;23;20379;-82
2021/09/10 00:48:26;;;;;;;1.50;1.40;;;16.20;99.90;;;;;;6147836;23;20379;-81
2021/09/10 00:51:10;;;;;;;1.50;1.40;;;16.20;99.90;;;;;;6189700;23;20398;-81
2021/09/10 00:53:55;;;;;;;1.53;1.43;;;16.10;99.90;;;;;;6169139;23;20422;-81
2021/09/10 00:56:39;;;;;;;1.43;1.33;;;16.10;99.90;;;;;;6147219;23;20375;-82
2021/09/10 00:59:23;;;;;;;1.48;1.38;;;16.10;99.90;;;;;;6147753;23;20444;-85
2021/09/10 01:02:08;;;;;;;1.75;1.65;;;16.00;99.90;;;;;;6127032;23;20473;-81
2021/09/10 01:04:54;;;;;;;1.63;1.52;;;16.00;99.90;;;;;;6148123;23;20700;-82
2021/09/10 01:07:38;;;;;;;1.27;1.27;;;16.00;99.90;;;;;;6147828;23;20375;-81
2021/09/10 01:10:23;;;;;;;1.38;1.30;;;16.00;99.90;;;;;;6147108;23;20729;-81
2021/09/10 01:13:08;;;;;;;1.30;1.20;;;16.00;99.90;;;;;;6147292;23;20365;-82
2021/09/10 01:15:52;;;;;;;1.45;1.35;;;16.00;99.90;;;;;;6147188;23;20422;-81
2021/09/10 01:18:36;;;;;;;1.50;1.40;;;15.90;99.90;;;;;;6130146;23;20471;-89
2021/09/10 01:21:21;;;;;;;1.52;1.42;;;15.90;99.90;;;;;;6160052;23;20939;-84
2021/09/10 01:24:05;;;;;;;1.67;1.58;;;15.90;99.90;;;;;;6157977;23;20365;-85
2021/09/10 01:26:50;;;;;;;1.70;1.60;;;15.80;99.90;;;;;;6153388;23;20381;-84
2021/09/10 01:29:34;;;;;;;1.45;1.35;;;15.80;99.90;;;;;;6152583;23;20406;-83
2021/09/10 01:32:19;;;;;;;1.35;1.35;;;15.80;99.90;;;;;;6130671;23;20395;-84
2021/09/10 01:35:03;;;;;;;1.65;1.55;;;15.80;99.90;;;;;;6189586;23;20371;-83
2021/09/10 01:37:47;;;;;;;1.20;1.20;;;15.80;99.90;;;;;;6149356;23;20370;-80
2021/09/10 01:40:32;;;;;;;1.67;1.48;;;15.80;99.90;;;;;;6147544;23;20418;-81
2021/09/10 01:43:16;;;;;;;1.40;1.23;;;15.70;99.90;;;;;;6170090;23;20382;-83
2021/09/10 01:46:00;;;;;;;1.70;1.60;;;15.70;99.90;;;;;;6146487;23;20410;-83
2021/09/10 01:48:44;;;;;;;1.50;1.40;;;15.70;99.90;;;;;;6148160;23;20370;-83
2021/09/10 01:51:33;;;;;;;1.67;1.57;;;15.70;99.90;;;;;;6147494;23;20418;-81
2021/09/10 01:54:17;;;;;;;1.45;1.35;;;15.70;99.90;;;;;;6149994;23;20391;-83
2021/09/10 01:57:02;;;;;;;1.83;1.70;;;15.60;99.90;;;;;;6126983;23;20705;-82
2021/09/10 01:59:46;;;;;;;1.40;1.30;;;15.60;99.90;;;;;;6146957;23;20379;-81
2021/09/10 02:02:30;;;;;;;1.77;1.67;;;15.60;99.90;;;;;;6169356;23;20363;-80
2021/09/10 02:05:14;;;;;;;1.60;1.50;;;15.60;99.90;;;;;;6146228;23;20434;-81
2021/09/10 02:07:58;;;;;;;1.37;1.27;;;15.60;99.90;;;;;;6151323;23;20367;-85
2021/09/10 02:10:43;;;;;;;1.50;1.40;;;15.60;99.90;;;;;;6169910;23;20919;-81
2021/09/10 02:13:27;;;;;;;1.30;1.20;;;15.60;99.90;;;;;;6149750;23;20728;-85
2021/09/10 02:16:11;;;;;;;1.40;1.30;;;15.60;99.90;;;;;;6127491;23;20358;-82
2021/09/10 02:18:56;;;;;;;1.38;1.27;;;15.60;99.90;;;;;;6149096;23;20438;-80
2021/09/10 02:21:40;;;;;;;1.40;1.30;;;15.60;99.90;;;;;;6127962;23;20362;-84
2021/09/10 02:24:24;;;;;;;1.45;1.35;;;15.60;99.90;;;;;;6188827;23;20371;-89
2021/09/10 02:27:09;;;;;;;1.23;1.23;;;15.60;99.90;;;;;;6147058;23;20423;-83
2021/09/10 02:29:53;;;;;;;1.27;1.25;;;15.60;99.90;;;;;;6147970;23;20410;-81
2021/09/10 02:32:37;;;;;;;1.88;1.67;;;15.60;99.90;;;;;;6131560;23;20375;-86
2021/09/10 02:35:21;;;;;;;1.30;1.30;;;15.60;99.90;;;;;;6203169;23;20374;-88
2021/09/10 02:38:06;;;;;;;1.60;1.50;;;15.60;99.90;;;;;;6158557;23;20378;-87
2021/09/10 02:40:50;;;;;;;1.30;1.20;;;15.60;99.90;;;;;;6155801;23;20422;-86
2021/09/10 02:43:35;;;;;;;2.77;1.60;;;15.60;99.90;;;;;;6153794;23;21053;-80
2021/09/10 02:46:19;;;;;;;1.30;1.30;;;15.60;99.90;;;;;;6130461;23;20374;-80
2021/09/10 02:49:04;;;;;;;1.40;1.30;;;15.50;99.90;;;;;;6151853;23;20859;-82
2021/09/10 02:51:48;;;;;;;1.35;1.25;;;15.50;99.90;;;;;;6151501;23;20445;-82
2021/09/10 02:54:33;;;;;;;1.83;1.60;;;15.50;99.90;;;;;;6150126;23;20379;-80
2021/09/10 02:57:17;;;;;;;1.65;1.50;;;15.40;99.90;;;;;;6171408;23;20464;-80
2021/09/10 03:00:03;;;;;;;1.52;1.42;;;15.30;99.90;;;;;;6170062;23;20402;-81
2021/09/10 03:02:48;;;;;;;1.50;1.40;;;15.30;99.90;;;;;;6150997;23;20425;-82
2021/09/10 03:05:33;;;;;;;1.47;1.37;;;15.30;99.90;;;;;;6169936;23;20451;-82
2021/09/10 03:08:17;;;;;;;1.50;1.40;;;15.30;99.90;;;;;;6149281;23;20395;-81
2021/09/10 03:11:01;;;;;;;1.10;1.10;;;15.40;99.90;;;;;;6149184;23;20378;-83
2021/09/10 03:13:45;;;;;;;1.50;1.40;;;15.40;99.90;;;;;;6165555;23;20379;-80
2021/09/10 03:16:31;;;;;;;1.40;1.30;;;15.40;99.90;;;;;;6169099;23;20394;-89
2021/09/10 03:19:16;;;;;;;1.63;1.40;;;15.40;99.90;;;;;;6149385;23;20398;-82
2021/09/10 03:22:00;;;;;;;1.30;1.27;;;15.40;99.90;;;;;;6128165;23;20451;-86
2021/09/10 03:24:44;;;;;;;1.50;1.40;;;15.40;99.90;;;;;;6127113;23;20390;-82
2021/09/10 03:27:29;;;;;;;1.37;1.30;;;15.40;99.90;;;;;;6170099;23;20375;-80
2021/09/10 03:30:13;;;;;;;1.52;1.42;;;15.40;99.90;;;;;;6190197;23;20466;-81
2021/09/10 03:32:57;;;;;;;2.00;1.38;;;15.40;99.90;;;;;;6149205;23;20422;-80
2021/09/10 03:35:42;;;;;;;1.30;1.20;;;15.40;99.90;;;;;;6168721;23;20788;-83
2021/09/10 03:38:26;;;;;;;1.60;1.50;;;15.40;99.90;;;;;;6147367;23;20386;-80
2021/09/10 03:41:10;;;;;;;2.17;1.38;;;15.40;99.90;;;;;;6126240;23;20392;-78
2021/09/10 03:43:55;;;;;;;2.92;1.40;;;15.40;99.90;;;;;;6144515;23;20501;-78
2021/09/10 03:46:39;;;;;;;1.65;1.55;;;15.40;99.90;;;;;;6185713;23;20415;-81
2021/09/10 03:49:23;;;;;;;1.42;1.35;;;15.40;99.90;;;;;;6132865;23;20366;-84
2021/09/10 03:52:08;;;;;;;1.80;1.42;;;15.40;99.90;;;;;;6171934;23;20370;-85
2021/09/10 03:54:52;;;;;;;1.48;1.38;;;15.40;99.90;;;;;;6146108;23;20495;-83
2021/09/10 03:57:36;;;;;;;4.20;1.77;;;15.40;99.90;;;;;;6149131;23;20378;-80
2021/09/10 04:00:23;;;;;;;1.58;1.48;;;15.50;99.90;;;;;;6131830;23;20693;-83
2021/09/10 04:03:07;;;;;;;2.20;1.60;;;15.50;99.90;;;;;;6191464;23;20359;-80
2021/09/10 04:05:52;;;;;;;1.77;1.67;;;15.60;99.90;;;;;;6188974;23;20425;-85
2021/09/10 04:08:39;;;;;;;1.60;1.50;;;15.60;99.90;;;;;;6147901;23;20367;-82
2021/09/10 04:11:24;;;;;;;2.00;1.80;;;15.70;99.90;;;;;;6146731;23;20432;-80
2021/09/10 04:14:11;;;;;;;1.10;1.10;;;15.70;99.90;;;;;;6145977;23;20414;-81
2021/09/10 04:16:55;;;;;;;1.40;1.30;;;15.70;99.90;;;;;;6143483;23;20390;-80
2021/09/10 04:19:39;;;;;;;1.42;1.33;;;15.60;99.90;;;;;;6143416;23;20697;-83
2021/09/10 04:22:23;;;;;;;2.00;1.70;;;15.60;99.90;;;;;;6164888;23;20477;-79
2021/09/10 04:25:08;;;;;;;1.52;1.42;;;15.60;99.90;;;;;;6165203;23;20378;-80
2021/09/10 04:27:52;;;;;;;1.50;1.40;;;15.60;99.90;;;;;;6144441;23;20374;-82
2021/09/10 04:30:37;;;;;;;1.55;1.45;;;15.60;99.90;;;;;;6143812;23;20382;-79
2021/09/10 04:33:21;;;;;;;1.55;1.45;;;15.70;99.90;;;;;;6150082;23;20402;-82
2021/09/10 04:36:05;;;;;;;1.77;1.60;;;15.70;99.90;;;;;;6153094;23;20386;-83
2021/09/10 04:38:49;;;;;;;3.35;1.60;;;15.70;99.90;;;;;;6157461;23;20447;-85
2021/09/10 04:41:34;;;;;;;1.77;1.60;;;15.80;99.90;;;;;;6129566;23;20684;-85
2021/09/10 04:44:18;;;;;;;1.45;1.35;;;15.90;99.90;;;;;;6146384;23;20381;-80
2021/09/10 04:47:03;;;;;;;1.48;1.38;;;15.90;99.90;;;;;;6152162;23;20415;-86
2021/09/10 04:49:47;;;;;;;1.48;1.38;;;15.90;99.90;;;;;;6131568;23;20447;-83
2021/09/10 04:52:32;;;;;;;1.40;1.30;;;15.90;99.90;;;;;;6135326;23;20363;-82
2021/09/10 04:55:17;;;;;;;1.90;1.60;;;15.90;99.90;;;;;;6193482;23;20696;-81
2021/09/10 04:58:01;;;;;;;1.43;1.33;;;16.00;99.90;;;;;;6148032;23;20363;-80
2021/09/10 05:00:45;;;;;;;1.33;1.23;;;16.10;99.90;;;;;;6149702;23;20362;-88
2021/09/10 05:03:31;;;;;;;2.15;1.98;;;16.10;99.90;;;;;;6177177;23;20394;-81
2021/09/10 05:06:15;;;;;;;2.17;1.50;;;16.20;99.90;;;;;;6174394;23;20362;-85
2021/09/10 05:08:59;;;;;;;1.95;1.80;;;16.30;99.90;;;;;;6152313;23;20739;-81
2021/09/10 05:11:43;;;;;;;2.40;1.70;;;16.30;99.90;;;;;;6130458;23;20394;-88
2021/09/10 05:14:28;;;;;;;2.42;1.52;;;16.50;99.90;;;;;;6136422;23;20448;-86
2021/09/10 05:17:12;;;;;;;2.72;2.00;;;16.30;99.90;;;;;;6157415;23;20430;-85
2021/09/10 05:19:58;;;;;;;1.90;1.80;;;16.40;99.90;;;;;;6138768;23;20406;-88
2021/09/10 05:22:42;;;;;;;2.73;1.80;;;16.50;99.90;;;;;;6182335;23;20895;-86
2021/09/10 05:25:26;;;;;;;1.75;1.65;;;16.50;99.90;;;;;;6180881;23;20394;-90
2021/09/10 05:28:11;;;;;;;2.03;1.80;;;16.60;99.90;;;;;;6161457;23;20385;-87
2021/09/10 05:30:55;;;;;;;1.60;1.50;;;16.60;99.90;;;;;;6139995;23;20386;-85
2021/09/10 05:33:40;;;;;;;2.42;1.70;;;16.70;99.90;;;;;;6181607;23;20370;-87
2021/09/10 05:36:24;;;;;;;1.20;1.20;;;16.90;99.90;;;;;;6140947;23;20382;-90
2021/09/10 05:39:08;;;;;;;2.78;1.70;;;16.90;99.90;;;;;;6140774;23;20375;-89
2021/09/10 05:41:53;;;;;;;1.80;1.70;;;17.00;99.90;;;;;;6141794;23;20374;-89
2021/09/10 05:44:37;;;;;;;1.50;1.40;;;17.10;99.90;;;;;;6182236;23;20366;-90
2021/09/10 05:47:21;;;;;;;1.50;1.40;;;17.20;99.90;;;;;;6112734;23;20377;-88
2021/09/10 05:50:06;;;;;;;1.67;1.50;;;17.20;99.90;;;;;;6152347;23;20815;-88
2021/09/10 05:52:51;;;;;;;1.55;1.45;;;17.20;99.90;;;;;;6132208;23;20452;-91
2021/09/10 05:55:35;;;;;;;1.70;1.60;;;17.30;99.90;;;;;;6150518;23;20364;-88
2021/09/10 05:58:20;;;;;;;2.03;1.90;;;17.30;99.90;;;;;;6151743;23;20373;-89
2021/09/10 06:01:04;;;;;;;1.90;1.70;;;17.40;99.90;;;;;;6110374;23;20364;-85
2021/09/10 06:03:48;;;;;;;1.63;1.52;;;17.50;99.90;;;;;;6109007;23;20380;-88
2021/09/10 06:06:33;;;;;;;1.50;1.40;;;17.60;99.90;;;;;;6108795;23;20396;-86
2021/09/10 06:09:18;;;;;;;1.42;1.27;;;17.70;99.90;;;;;;6150189;23;20446;-90
2021/09/10 06:12:02;;;;;;;1.50;1.40;;;17.70;99.90;;;;;;6110207;23;20389;-90
2021/09/10 06:14:46;;;;;;;1.35;1.25;;;17.80;99.90;;;;;;6129121;23;20415;-89
2021/09/10 06:17:30;;;;;;;1.77;1.67;;;18.10;99.90;;;;;;6109127;23;20384;-89
2021/09/10 06:20:15;;;;;;;3.05;1.48;;;18.10;99.90;;;;;;6109693;23;20404;-85
2021/09/10 06:23:00;;;;;;;1.80;1.70;;;18.20;99.90;;;;;;6131932;23;20356;-89
2021/09/10 06:25:45;;;;;;;3.08;2.20;;;18.30;99.90;;;;;;6110460;23;20393;-88
2021/09/10 06:28:29;;;;;;;1.85;1.75;;;18.40;99.90;;;;;;6150534;23;20404;-87
2021/09/10 06:31:14;;;;;;;1.80;1.70;;;18.50;99.90;;;;;;6130106;23;20380;-87
2021/09/10 06:33:58;;;;;;;1.70;1.60;;;18.60;99.90;;;;;;6130080;23;20372;-90
2021/09/10 06:36:42;;;;;;;1.70;1.60;;;18.90;99.90;;;;;;6109996;23;20377;-89
2021/09/10 06:39:27;;;;;;;1.60;1.45;;;19.00;99.90;;;;;;6106556;23;20375;-86
2021/09/10 06:42:11;;;;;;;2.13;1.63;;;19.00;99.90;;;;;;6127441;23;20368;-84
2021/09/10 06:44:59;;;;;;;1.90;1.77;;;19.10;99.90;;;;;;6114935;23;20388;-93
2021/09/10 06:47:43;;;;;;;2.50;1.80;;;19.20;99.90;;;;;;6121389;23;20399;-93
2021/09/10 06:50:28;;;;;;;1.70;1.60;;;19.40;99.90;;;;;;6118865;23;20380;-88
2021/09/10 06:53:12;;;;;;;1.80;1.70;;;19.50;99.90;;;;;;6120142;23;20425;-93
2021/09/10 06:55:57;;;;;;;1.52;1.42;;;19.70;99.90;;;;;;6121312;23;20445;-93
2021/09/10 06:58:42;;;;;;;1.75;1.65;;;19.90;99.90;;;;;;6121978;23;20388;-93
2021/09/10 07:01:27;;;;;;;1.90;1.80;;;20.10;99.90;;;;;;6123147;23;20376;-91
2021/09/10 07:04:11;;;;;;;2.53;2.30;;;20.40;99.90;;;;;;6121026;23;20361;-90
2021/09/10 07:06:56;;;;;;;3.00;2.40;;;20.60;99.90;;;;;;6122064;23;20368;-91
2021/09/10 07:09:40;;;;;;;2.35;1.85;;;20.90;99.90;;;;;;6121255;23;20421;-92
2021/09/10 07:12:25;;;;;;;1.73;1.63;;;21.00;99.90;;;;;;6122639;23;20353;-91
2021/09/10 07:15:09;;;;;;;1.50;1.40;;;21.10;99.90;;;;;;6121327;23;20523;-93
2021/09/10 07:17:54;;;;;;;1.88;1.60;;;21.30;99.90;;;;;;6120950;23;20391;-93
2021/09/10 07:20:38;;;;;;;2.08;1.92;;;21.30;99.90;;;;;;6122485;23;20437;-92
2021/09/10 07:23:23;;;;;;;2.13;1.70;;;21.40;99.90;;;;;;6121950;23;20376;-92
2021/09/10 07:26:07;;;;;;;1.98;1.67;;;21.40;99.90;;;;;;6121160;23;20611;-91
2021/09/10 07:28:51;;;;;;;2.15;1.95;;;21.50;99.90;;;;;;6116409;23;20419;-93
2021/09/10 07:31:36;;;;;;;2.10;1.98;;;21.60;99.90;;;;;;6121376;23;20461;-88
2021/09/10 07:34:21;;;;;;;2.75;2.03;;;21.50;99.90;;;;;;6139142;23;20365;-91
2021/09/10 07:37:05;;;;;;;1.83;1.73;;;21.60;99.90;;;;;;6139128;23;20361;-92
2021/09/10 07:39:49;;;;;;;2.33;1.90;;;21.70;99.90;;;;;;6142040;23;20408;-93
2021/09/10 07:42:34;;;;;;;2.38;2.22;;;21.80;99.90;;;;;;6120232;23;20368;-92
2021/09/10 07:45:18;;;;;;;2.10;1.90;;;21.80;99.90;;;;;;6142332;23;20372;-93
2021/09/10 07:48:03;;;;;;;2.58;2.13;;;22.00;99.90;;;;;;6124370;23;20376;-92
2021/09/10 07:50:47;;;;;;;1.83;1.73;;;22.00;99.90;;;;;;6143968;23;20428;-92
2021/09/10 07:53:32;;;;;;;5.20;2.33;;;22.20;99.90;;;;;;6123560;23;20368;-94
2021/09/10 07:56:16;;;;;;;4.10;2.30;;;22.30;99.90;;;;;;6122463;23;20368;-94
2021/09/10 07:59:01;;;;;;;2.42;2.10;;;22.50;99.90;;;;;;6123876;23;20361;-92
2021/09/10 08:01:45;;;;;;;4.05;2.20;;;22.50;99.90;;;;;;6122568;23;20352;-92
2021/09/10 08:04:30;;;;;;;2.33;1.92;;;22.70;99.90;;;;;;6144280;23;20356;-92
2021/09/10 08:07:14;;;;;;;1.65;1.55;;;22.70;99.90;;;;;;6163913;23;20383;-93
2021/09/10 08:09:59;;;;;;;2.30;2.10;;;22.80;99.90;;;;;;6123751;23;20476;-93
2021/09/10 08:12:44;;;;;;;3.40;2.37;;;22.90;99.90;;;;;;6123212;23;20392;-90
2021/09/10 08:15:29;;;;;;;2.40;2.20;;;22.90;99.90;;;;;;6124162;23;20370;-93
2021/09/10 08:18:13;;;;;;;2.88;2.30;;;23.00;99.90;;;;;;6123656;23;20411;-91
2021/09/10 08:20:58;;;;;;;2.22;2.03;;;23.00;99.90;;;;;;6164366;23;20376;-91
2021/09/10 08:23:42;;;;;;;2.15;1.95;;;23.10;99.90;;;;;;6123897;23;20396;-92
2021/09/10 08:26:27;;;;;;;2.40;2.20;;;23.30;99.90;;;;;;6144354;23;20356;-89
2021/09/10 08:29:11;;;;;;;2.65;2.42;;;23.40;99.90;;;;;;6125475;23;20364;-94
2021/09/10 08:31:55;;;;;;;2.60;2.20;;;23.50;99.90;;;;;;6124318;23;20380;-91
2021/09/10 08:34:40;;;;;;;3.30;2.33;;;23.50;99.90;;;;;;6125145;23;20365;-95
2021/09/10 08:37:26;;;;;;;3.10;2.38;;;23.50;99.90;;;;;;6124353;23;20357;-92
2021/09/10 08:40:14;;;;;;;2.27;2.17;;;23.60;99.90;;;;;;6125383;23;20381;-91
2021/09/10 08:43:01;;;;;;;4.35;2.60;;;23.70;99.90;;;;;;6165434;23;20388;-92
2021/09/10 08:45:46;;;;;;;2.50;2.30;;;23.70;99.90;;;;;;6144165;23;20376;-92
2021/09/10 08:57:49;;;;;;;2.42;2.22;;;24.00;99.90;;;;;;6242718;22;20376;-93
2021/09/10 09:00:34;;;;;;;2.20;2.00;;;24.10;99.90;;;;;;6145912;23;20379;-92
2021/09/10 09:03:18;;;;;;;2.38;2.28;;;24.30;99.90;;;;;;6147077;23;20381;-90
2021/09/10 09:06:02;;;;;;;3.38;2.55;;;24.60;99.90;;;;;;6166623;23;20367;-91
2021/09/10 09:08:48;;;;;;;3.38;2.63;;;24.50;99.90;;;;;;6169393;23;20378;-91
2021/09/10 09:11:33;;;;;;;3.45;2.33;;;24.60;99.90;;;;;;6170050;23;20374;-91
2021/09/10 09:14:18;;;;;;;2.95;2.72;;;24.70;99.90;;;;;;6148436;23;20427;-91
2021/09/10 09:17:17;;;;;;;2.63;2.42;;;24.80;99.90;;;;;;6170424;23;20367;-93
2021/09/10 09:20:14;;;;;;;2.40;2.20;;;24.90;99.90;;;;;;6192345;23;20365;-91
2021/09/10 09:23:06;;;;;;;2.33;2.13;;;25.00;99.90;;;;;;6170156;23;20383;-91
2021/09/10 09:25:51;;;;;;;2.60;2.40;;;25.00;99.90;;;;;;6177365;22;20439;-90
2021/09/10 09:28:46;;;;;;;2.65;2.45;;;25.10;99.90;;;;;;6209108;23;20382;-92
2021/09/10 09:31:42;;;;;;;2.78;2.58;;;25.20;99.90;;;;;;6190519;22;20371;-90
2021/09/10 09:34:49;;;;;;;2.45;2.15;;;25.30;99.90;;;;;;6153671;23;20368;-91
2021/09/10 09:50:35;;;;;;;2.45;2.25;;;26.00;99.90;;;;;;6223982;22;20369;-89
2021/09/10 12:14:14;;;;;;;1.60;1.50;;;35.20;94.70;;;;;;6267215;22;20370;-81
2021/09/10 12:17:20;;;;;;;2.83;1.98;;;35.00;94.20;;;;;;6156047;22;20391;-81
2021/09/10 12:20:11;;;;;;;2.10;1.90;;;35.50;92.50;;;;;;6178954;22;20412;-82
2021/09/10 12:23:02;;;;;;;2.22;1.88;;;35.10;93.70;;;;;;6211213;23;20386;-80
2021/09/10 12:26:01;;;;;;;1.70;1.60;;;35.20;93.10;;;;;;6185824;23;20390;-79
2021/09/10 12:34:54;;;;;;;1.70;1.60;;;36.10;91.50;;;;;;6279533;22;20334;-80
2021/09/10 12:40:58;;;;;;;1.80;1.70;;;35.70;90.90;;;;;;6232686;22;20387;-80
2021/09/10 12:59:00;;;;;;;2.15;1.55;;;35.80;86.40;;;;;;6284432;22;20375;-80
2021/09/10 13:01:48;;;;;;;1.55;1.45;;;35.10;88.70;;;;;;6215011;22;20375;-81
2021/09/10 13:04:40;;;;;;;1.77;1.67;;;34.80;90.50;;;;;;6208641;22;20351;-80
2021/09/10 13:10:22;;;;;;;1.85;1.75;;;33.40;90.70;;;;;;6290916;22;20368;-77
2021/09/10 13:13:08;;;;;;;2.30;2.10;;;33.40;91.00;;;;;;6226155;22;20378;-81
2021/09/10 13:15:59;;;;;;;2.00;1.80;;;33.70;92.40;;;;;;6183658;22;20412;-80
2021/09/10 13:18:46;;;;;;;2.33;1.83;;;34.00;91.70;;;;;;6213336;22;20427;-80
2021/09/10 13:27:32;;;;;;;1.80;1.70;;;32.60;92.00;;;;;;6230773;22;20393;-79
2021/09/10 13:30:26;;;;;;;1.70;1.60;;;32.40;93.30;;;;;;6168129;23;20394;-81
2021/09/10 13:42:42;;;;;;;1.40;1.40;;;31.70;94.50;;;;;;6268931;22;20393;-80
2021/09/10 14:04:03;;;;;;;2.10;1.90;;;28.50;99.90;;;;;;6240317;23;20349;-93
2021/09/10 14:06:52;;;;;;;1.50;1.40;;;27.70;99.90;;;;;;6197463;22;20474;-92
2021/09/10 14:09:37;;;;;;;1.80;1.70;;;27.20;99.90;;;;;;6216428;23;20426;-93
2021/09/10 14:12:22;;;;;;;1.70;1.60;;;26.60;99.90;;;;;;6216198;23;20438;-92
2021/09/10 14:15:08;;;;;;;2.28;2.08;;;26.00;99.90;;;;;;6218176;22;20377;-93
2021/09/10 14:17:56;;;;;;;2.05;1.92;;;25.20;99.90;;;;;;6217575;23;20508;-92
2021/09/10 14:20:40;;;;;;;2.37;1.93;;;24.70;99.90;;;;;;6195625;22;20424;-93
2021/09/10 14:23:24;;;;;;;1.85;1.45;;;24.70;99.90;;;;;;6217140;23;20440;-92
2021/09/10 14:26:09;;;;;;;1.60;1.50;;;24.50;99.90;;;;;;6218191;23;20421;-93
2021/09/10 14:28:53;;;;;;;1.65;1.23;;;24.50;99.90;;;;;;6218822;23;20380;-90
2021/09/10 14:31:39;;;;;;;2.92;1.90;;;24.50;99.90;;;;;;6218179;23;20377;-90
2021/09/10 14:34:30;;;;;;;1.80;1.60;;;23.90;99.90;;;;;;6222009;23;20372;-93
2021/09/10 14:37:17;;;;;;;1.50;1.40;;;23.70;99.90;;;;;;6205690;22;20393;-91
2021/09/10 14:40:03;;;;;;;1.77;1.53;;;23.70;99.90;;;;;;6202742;22;20361;-93
2021/09/10 14:42:47;;;;;;;1.60;1.50;;;23.60;99.90;;;;;;6223739;22;20376;-94
2021/09/10 14:45:32;;;;;;;1.38;1.20;;;23.60;99.90;;;;;;6224397;22;20333;-93
2021/09/10 15:30:59;;;;;;;1.33;1.23;;;23.70;99.90;;;;;;6257972;22;20354;-93
2021/09/10 15:33:45;;;;;;;1.40;1.30;;;23.80;99.90;;;;;;6207404;23;20379;-92
2021/09/10 15:36:32;;;;;;;2.90;1.90;;;23.90;99.90;;;;;;6242991;22;20356;-91
2021/09/10 15:39:19;;;;;;;1.40;1.35;;;23.80;99.90;;;;;;6180065;22;20380;-93
2021/09/10 15:42:07;;;;;;;1.73;1.63;;;23.50;99.90;;;;;;6199114;22;20422;-92
2021/09/10 15:44:55;;;;;;;1.40;1.30;;;23.60;99.90;;;;;;6181188;22;20384;-93
2021/09/10 15:47:40;;;;;;;1.40;1.30;;;23.90;99.90;;;;;;6178460;22;20698;-92
2021/09/10 15:50:26;;;;;;;1.50;1.40;;;24.20;99.90;;;;;;6177605;22;20446;-89
2021/09/10 15:59:04;;;;;;;1.97;1.27;;;24.50;99.90;;;;;;6238678;22;20352;-92
2021/09/10 17:05:52;;;;;;;2.58;1.90;;;23.50;99.90;;;;;;6236434;22;20398;-94
2021/09/10 17:08:36;;;;;;;1.50;1.40;;;23.50;99.90;;;;;;6172003;22;20390;-92
2021/09/10 17:11:21;;;;;;;1.42;1.30;;;23.30;99.90;;;;;;6152475;22;20394;-93
2021/09/10 17:14:06;;;;;;;1.30;1.20;;;23.40;99.90;;;;;;6173080;22;20404;-93
2021/09/10 17:16:51;;;;;;;1.20;1.20;;;23.50;99.90;;;;;;6153561;22;20362;-92
2021/09/10 17:19:36;;;;;;;1.30;1.30;;;23.50;99.90;;;;;;6150623;22;20367;-93
2021/09/10 17:22:27;;;;;;;5.88;1.50;;;23.50;99.90;;;;;;6157056;22;20354;-91
2021/09/10 17:25:12;;;;;;;1.20;1.10;;;23.40;99.90;;;;;;6194507;22;20382;-92
2021/09/10 17:27:56;;;;;;;1.70;1.60;;;23.40;99.90;;;;;;6150697;22;20394;-92
2021/09/10 17:30:43;;;;;;;1.35;1.25;;;23.30;99.90;;;;;;6160132;23;20416;-92
2021/09/10 17:33:28;;;;;;;1.35;1.25;;;23.20;99.90;;;;;;6153061;22;20358;-93
2021/09/10 17:36:13;;;;;;;0.98;0.98;;;23.20;99.90;;;;;;6174341;22;20428;-92
2021/09/10 17:38:57;;;;;;;1.13;1.13;;;23.20;99.90;;;;;;6152953;22;20435;-92
2021/09/10 17:41:44;;;;;;;1.50;1.20;;;23.00;99.90;;;;;;6136549;22;20382;-92
2021/09/10 17:44:28;;;;;;;1.37;1.20;;;23.00;99.90;;;;;;6153535;22;20375;-92
2021/09/10 17:47:13;;;;;;;1.60;1.50;;;22.90;99.90;;;;;;6152389;23;20362;-92
2021/09/10 17:49:58;;;;;;;1.52;1.20;;;22.90;99.90;;;;;;6152913;22;20370;-92
2021/09/10 17:52:42;;;;;;;1.17;1.17;;;22.80;99.90;;;;;;6152182;22;20370;-93
2021/09/10 17:55:30;;;;;;;1.40;1.30;;;22.70;99.90;;;;;;6146061;22;20382;-91
2021/09/10 17:58:15;;;;;;;1.30;1.20;;;22.60;99.90;;;;;;6153784;22;20371;-92
2021/09/10 18:01:01;;;;;;;1.38;1.30;;;22.50;99.90;;;;;;6151269;22;20379;-92
2021/09/10 18:03:45;;;;;;;1.00;1.00;;;22.60;99.90;;;;;;6169001;23;20389;-91
2021/09/10 18:06:30;;;;;;;1.50;1.40;;;22.50;99.90;;;;;;6141538;23;20441;-93
2021/09/10 18:09:14;;;;;;;1.45;1.35;;;22.40;99.90;;;;;;6142465;23;20486;-93
2021/09/10 18:11:58;;;;;;;1.20;1.20;;;22.30;99.90;;;;;;6143238;23;20378;-93
2021/09/10 18:14:43;;;;;;;1.52;1.42;;;22.20;99.90;;;;;;6144273;23;20802;-92
2021/09/10 18:17:27;;;;;;;1.38;1.30;;;22.20;99.90;;;;;;6165777;23;20374;-93
2021/09/10 18:20:12;;;;;;;2.13;1.48;;;22.10;99.90;;;;;;6147645;23;20371;-92
2021/09/10 18:22:57;;;;;;;1.33;1.23;;;22.10;99.90;;;;;;6146504;23;20366;-92
2021/09/10 18:25:41;;;;;;;1.60;1.50;;;22.00;99.90;;;;;;6166509;23;20367;-92
2021/09/10 18:28:26;;;;;;;1.35;1.33;;;21.90;99.90;;;;;;6166616;23;20366;-91
2021/09/10 18:31:10;;;;;;;2.10;1.90;;;21.80;99.90;;;;;;6144717;23;20474;-90
2021/09/10 18:33:54;;;;;;;1.98;1.80;;;21.80;99.90;;;;;;6145036;23;20370;-92
2021/09/10 18:36:38;;;;;;;2.40;2.17;;;21.70;99.90;;;;;;6144108;23;20426;-91
2021/09/10 18:39:23;;;;;;;2.00;1.90;;;21.60;99.90;;;;;;6164030;23;20445;-88
2021/09/10 18:42:07;;;;;;;2.10;1.90;;;21.60;99.90;;;;;;6143067;23;20394;-88
2021/09/10 18:44:52;;;;;;;1.88;1.75;;;21.60;99.90;;;;;;6142896;23;20398;-86
2021/09/10 18:47:36;;;;;;;1.50;1.40;;;21.60;99.90;;;;;;6144998;23;20377;-91
2021/09/10 18:50:20;;;;;;;1.33;1.30;;;21.50;99.90;;;;;;6166521;23;20373;-92
2021/09/10 18:53:05;;;;;;;1.60;1.50;;;21.50;99.90;;;;;;6145791;23;20390;-91
2021/09/10 18:55:49;;;;;;;1.60;1.50;;;21.50;99.90;;;;;;6143924;23;20443;-93
2021/09/10 18:58:34;;;;;;;1.25;1.20;;;21.60;99.90;;;;;;6143490;23;20378;-93
2021/09/10 19:01:18;;;;;;;1.30;1.30;;;21.50;99.90;;;;;;6167692;23;20386;-92
2021/09/10 19:04:05;;;;;;;1.50;1.40;;;21.60;99.90;;;;;;6143642;23;20391;-92
2021/09/10 19:06:50;;;;;;;1.50;1.40;;;21.50;99.90;;;;;;6158820;23;20385;-90
2021/09/10 19:09:35;;;;;;;1.40;1.30;;;21.50;99.90;;;;;;6137361;23;20780;-91
2021/09/10 19:12:20;;;;;;;1.35;1.25;;;21.50;99.90;;;;;;6139481;23;20371;-94
2021/09/10 19:15:07;;;;;;;1.75;1.65;;;21.60;99.90;;;;;;6138909;23;20397;-92
2021/09/10 19:17:52;;;;;;;1.25;1.25;;;21.50;99.90;;;;;;6118317;23;20372;-91
2021/09/10 19:20:37;;;;;;;1.58;1.48;;;21.40;99.90;;;;;;6138407;23;20360;-92
2021/09/10 19:23:21;;;;;;;1.30;1.23;;;21.40;99.90;;;;;;6140195;23;20575;-92
2021/09/10 19:26:06;;;;;;;1.50;1.40;;;21.40;99.90;;;;;;6180230;23;20372;-94
2021/09/10 19:28:50;;;;;;;1.48;1.40;;;21.40;99.90;;;;;;6138857;23;20368;-92
2021/09/10 19:31:37;;;;;;;1.40;1.30;;;21.40;99.90;;;;;;6138918;23;20449;-92
2021/09/10 19:34:21;;;;;;;1.50;1.40;;;21.40;99.90;;;;;;6139168;23;20389;-91
2021/09/10 19:37:06;;;;;;;1.70;1.50;;;21.40;99.90;;;;;;6137783;23;20375;-91
2021/09/10 19:39:51;;;;;;;1.92;1.83;;;21.30;99.90;;;;;;6136078;23;20376;-93
2021/09/10 19:42:35;;;;;;;2.88;2.67;;;21.20;99.90;;;;;;6135129;23;20415;-92
2021/09/10 19:45:19;;;;;;;2.10;1.85;;;21.00;99.90;;;;;;6136696;23;20380;-90
2021/09/10 19:48:06;;;;;;;1.77;1.67;;;21.00;99.90;;;;;;6139004;23;20710;-90
2021/09/10 19:50:50;;;;;;;2.60;2.40;;;21.00;99.90;;;;;;6115050;23;20407;-93
2021/09/10 19:53:34;;;;;;;2.00;1.90;;;20.80;99.90;;;;;;6136340;23;20430;-93
2021/09/10 19:56:19;;;;;;;2.13;2.03;;;20.60;99.90;;;;;;6136856;23;20352;-91
2021/09/10 19:59:04;;;;;;;2.05;1.95;;;20.70;99.90;;;;;;6137115;23;20372;-91